Time;durP1;ratioP1;P1;durP2;ratioP2;P2;SDS_P1;SDS_P2;PMS_P1;PMS_P2;Temp;Humidity;BMP_temperature;BMP_pressure;BME280_temperature;BME280_humidity;BME280_pressure;Samples;Min_cycle;Max_cycle;Signal;HPM_P1;HPM_P2
2021/03/17 00:00:22;;;;;;;15.70;9.60;;;;;;;5.34;59.04;99531.53;1740014;80;21180;-66
2021/03/17 00:03:08;;;;;;;14.90;8.55;;;;;;;5.34;59.04;99531.53;1740007;81;21203;-66
2021/03/17 00:05:54;;;;;;;17.65;9.35;;;;;;;5.46;58.47;99532.42;1734909;80;21167;-66
2021/03/17 00:08:41;;;;;;;24.60;8.98;;;;;;;5.47;58.26;99529.36;1737656;80;21365;-65
2021/03/17 00:11:29;;;;;;;19.60;8.95;;;;;;;5.49;58.32;99527.47;1731327;80;21180;-66
2021/03/17 00:14:17;;;;;;;17.87;9.28;;;;;;;5.50;58.07;99525.23;1746961;81;21613;-65
2021/03/17 00:17:03;;;;;;;13.48;8.58;;;;;;;5.49;57.86;99526.98;1743799;81;21201;-66
2021/03/17 00:19:49;;;;;;;14.15;7.87;;;;;;;5.43;57.85;99526.14;1739180;82;21175;-66
2021/03/17 00:22:36;;;;;;;14.00;8.43;;;;;;;5.40;58.08;99523.27;1748912;81;21720;-68
2021/03/17 00:25:29;;;;;;;;;;;;;;;5.38;58.23;99526.47;1751377;80;21589;-66
2021/03/17 00:28:04;;;;;;;13.95;7.20;;;;;;;5.36;57.98;99520.98;1864974;76;22745;-68
2021/03/17 00:30:50;;;;;;;19.37;9.40;;;;;;;5.22;58.13;99525.90;1820869;77;21140;-67
2021/03/17 00:33:36;;;;;;;16.65;8.25;;;;;;;5.15;58.25;99516.86;1848963;77;21174;-67
2021/03/17 00:36:22;;;;;;;16.12;9.13;;;;;;;5.11;58.38;99524.07;1807407;78;21160;-68
2021/03/17 00:39:09;;;;;;;19.45;8.83;;;;;;;5.12;58.52;99527.02;1783593;78;21175;-67
2021/03/17 00:41:55;;;;;;;14.07;7.75;;;;;;;5.13;58.53;99522.18;1776645;78;21147;-65
2021/03/17 00:44:41;;;;;;;15.15;7.67;;;;;;;5.14;58.61;99518.61;1778435;79;21153;-66
2021/03/17 00:47:28;;;;;;;13.28;7.78;;;;;;;5.11;58.34;99514.09;1785647;78;21394;-65
2021/03/17 00:49:56;;;;;;;11.83;7.12;;;;;;;5.11;58.34;99514.09;1778691;79;21623;-66
2021/03/17 00:52:24;;;;;;;13.62;7.80;;;;;;;5.08;58.57;99519.52;1782642;78;21188;-66
2021/03/17 00:55:08;;;;;;;19.82;9.25;;;;;;;5.07;58.53;99517.39;1781361;78;21155;-66
2021/03/17 00:57:43;;;;;;;12.95;7.58;;;;;;;5.04;58.53;99512.39;1743010;80;21111;-65
2021/03/17 01:00:13;;;;;;;17.05;8.75;;;;;;;4.96;58.70;99505.58;1801188;77;21335;-67
2021/03/17 01:02:41;;;;;;;15.18;8.05;;;;;;;4.92;58.90;99510.66;1771032;78;21581;-68
2021/03/17 01:05:10;;;;;;;18.00;9.15;;;;;;;4.92;58.90;99510.66;1778288;78;21179;-68
2021/03/17 01:07:38;;;;;;;13.70;8.23;;;;;;;4.89;58.96;99506.95;1778340;80;21169;-69
2021/03/17 01:10:16;;;;;;;19.92;9.08;;;;;;;4.89;58.96;99506.95;1792190;78;21124;-67
2021/03/17 01:12:43;;;;;;;18.15;7.72;;;;;;;4.84;59.14;99508.58;1798564;78;21448;-68
2021/03/17 01:15:14;;;;;;;16.00;8.68;;;;;;;4.83;59.11;99510.36;1789668;79;21616;-70
2021/03/17 01:17:41;;;;;;;12.35;7.70;;;;;;;4.85;59.21;99507.64;1787818;79;21168;-68
2021/03/17 01:20:11;;;;;;;16.40;7.50;;;;;;;4.86;59.17;99509.33;1761935;79;21740;-66
2021/03/17 01:22:38;;;;;;;12.80;7.28;;;;;;;4.86;59.22;99505.41;1764873;79;21160;-66
2021/03/17 01:25:11;;;;;;;15.58;8.13;;;;;;;4.87;59.26;99503.15;1754989;79;21188;-66
2021/03/17 01:27:38;;;;;;;18.07;7.87;;;;;;;4.88;59.25;99504.83;1794045;79;21156;-66
2021/03/17 01:30:08;;;;;;;19.98;8.40;;;;;;;4.87;59.31;99497.11;1793410;78;21144;-66
2021/03/17 01:32:36;;;;;;;18.77;7.80;;;;;;;4.83;59.26;99500.41;1788876;79;21158;-66
2021/03/17 01:35:14;;;;;;;13.58;8.03;;;;;;;4.84;59.30;99496.84;1791770;78;21187;-65
2021/03/17 01:37:42;;;;;;;17.40;8.45;;;;;;;4.95;59.08;99499.53;1787550;79;21188;-66
2021/03/17 01:40:12;;;;;;;12.88;7.47;;;;;;;4.99;58.88;99500.14;1793096;78;21915;-66
2021/03/17 01:42:41;;;;;;;16.45;8.78;;;;;;;4.97;58.95;99497.64;1786160;78;21124;-65
2021/03/17 01:45:13;;;;;;;12.23;7.72;;;;;;;4.96;59.07;99496.00;1788951;78;21179;-66
2021/03/17 01:47:42;;;;;;;14.13;8.33;;;;;;;4.92;59.10;99494.53;1792771;78;21550;-66
2021/03/17 01:50:15;;;;;;;21.55;7.97;;;;;;;4.86;58.82;99487.17;1792811;78;21204;-66
2021/03/17 01:52:43;;;;;;;14.73;7.72;;;;;;;4.81;58.86;99488.79;1794157;79;21192;-66
2021/03/17 01:55:11;;;;;;;18.82;8.20;;;;;;;4.80;58.81;99487.11;1747667;80;21108;-65
2021/03/17 01:57:39;;;;;;;14.13;8.53;;;;;;;4.78;58.91;99489.00;1712699;81;21171;-67
2021/03/17 02:00:13;;;;;;;16.60;8.55;;;;;;;4.78;58.76;99489.48;1737813;80;21949;-68
2021/03/17 02:02:45;;;;;;;16.23;8.13;;;;;;;4.78;58.76;99489.48;1794007;79;21204;-66
2021/03/17 02:05:16;;;;;;;12.28;8.30;;;;;;;4.78;59.17;99495.99;1803014;78;21220;-65
2021/03/17 02:07:43;;;;;;;13.25;7.95;;;;;;;4.75;59.14;99495.72;1763276;79;21134;-65
2021/03/17 02:10:15;;;;;;;15.60;8.83;;;;;;;4.73;59.09;99492.40;1770624;80;21492;-66
2021/03/17 02:13:17;;;;;;;14.33;7.72;;;;;;;4.71;58.94;99489.52;1758880;79;21171;-66
2021/03/17 02:16:15;;;;;;;12.80;8.23;;;;;;;4.65;59.01;99485.58;1789785;79;22462;-65
2021/03/17 02:19:16;;;;;;;15.83;7.62;;;;;;;4.53;59.27;99479.94;1793665;79;21140;-65
2021/03/17 02:22:32;;;;;;;16.90;8.73;;;;;;;4.44;59.67;99485.31;1787695;78;21140;-67
2021/03/17 02:25:08;;;;;;;20.05;7.20;;;;;;;4.35;59.87;99484.15;1764043;79;21187;-65
2021/03/17 02:28:08;;;;;;;;;;;;;;;4.25;60.11;99477.46;1764692;79;21156;-66
2021/03/17 02:30:44;;;;;;;11.83;7.30;;;;;;;4.21;60.34;99473.86;1759483;79;20916;-65
2021/03/17 02:33:45;;;;;;;15.03;7.55;;;;;;;4.11;60.66;99466.31;1802596;79;21602;-66
2021/03/17 02:36:23;;;;;;;16.45;8.55;;;;;;;4.16;60.66;99471.56;1771726;79;21147;-66
2021/03/17 02:38:55;;;;;;;22.13;8.83;;;;;;;4.30;60.37;99473.70;1795658;78;21159;-67
2021/03/17 02:41:28;;;;;;;12.85;7.80;;;;;;;4.38;60.39;99471.41;1801615;79;21179;-66
2021/03/17 02:43:57;;;;;;;15.45;9.20;;;;;;;4.41;60.24;99469.41;1788302;78;21202;-67
2021/03/17 02:46:25;;;;;;;14.38;8.00;;;;;;;4.39;60.38;99469.17;1728939;81;21486;-66
2021/03/17 02:49:06;;;;;;;15.80;8.38;;;;;;;4.35;60.29;99476.81;1793196;79;21522;-66
2021/03/17 02:51:47;;;;;;;16.35;8.30;;;;;;;4.36;60.30;99478.49;1790795;78;21139;-66
2021/03/17 02:54:18;;;;;;;12.23;8.20;;;;;;;4.38;60.32;99483.13;1785619;79;21155;-65
2021/03/17 02:56:51;;;;;;;13.62;8.23;;;;;;;4.39;60.32;99480.41;1757154;78;21183;-66
2021/03/17 02:59:20;;;;;;;13.13;7.92;;;;;;;4.42;60.25;99472.39;1779061;78;21171;-66
2021/03/17 03:01:54;;;;;;;23.85;9.08;;;;;;;4.37;60.17;99475.79;1766017;79;21195;-67
2021/03/17 03:04:22;;;;;;;15.85;7.85;;;;;;;4.33;60.22;99482.61;1733023;80;21171;-66
2021/03/17 03:06:50;;;;;;;15.65;8.20;;;;;;;4.31;60.34;99477.98;1765152;79;21160;-66
2021/03/17 03:09:19;;;;;;;15.18;8.05;;;;;;;4.30;60.38;99475.00;1734027;81;21171;-67
2021/03/17 03:11:47;;;;;;;13.58;7.58;;;;;;;4.27;60.36;99476.88;1763600;80;22082;-66
2021/03/17 03:14:15;;;;;;;13.13;7.35;;;;;;;4.21;60.46;99477.77;1731336;80;21641;-67
2021/03/17 03:16:43;;;;;;;17.32;7.53;;;;;;;4.18;60.65;99473.59;1736021;80;21194;-66
2021/03/17 03:19:11;;;;;;;12.07;7.60;;;;;;;4.21;60.61;99469.48;1766984;79;21184;-66
2021/03/17 03:21:39;;;;;;;14.03;7.72;;;;;;;4.33;60.48;99466.98;1756395;80;21402;-66
2021/03/17 03:24:07;;;;;;;15.68;6.92;;;;;;;4.37;60.39;99477.09;1769321;80;21167;-66
2021/03/17 03:26:35;;;;;;;13.45;7.30;;;;;;;4.38;60.30;99473.53;1753059;80;21156;-68
2021/03/17 03:29:04;;;;;;;17.77;7.65;;;;;;;4.39;60.28;99479.59;1764151;80;21195;-67
2021/03/17 03:31:32;;;;;;;16.55;6.85;;;;;;;4.39;60.26;99470.47;1764131;79;21140;-66
2021/03/17 03:34:01;;;;;;;11.73;6.42;;;;;;;4.40;60.06;99478.63;1758154;80;22131;-66
2021/03/17 03:36:30;;;;;;;15.58;8.10;;;;;;;4.36;60.08;99482.41;1763479;80;21546;-66
2021/03/17 03:38:59;;;;;;;17.30;7.83;;;;;;;4.34;60.10;99481.65;1764846;80;21623;-66
2021/03/17 03:41:27;;;;;;;12.90;7.62;;;;;;;4.35;60.17;99478.12;1742676;81;21180;-66
2021/03/17 03:43:55;;;;;;;18.50;7.37;;;;;;;4.31;60.09;99476.20;1788737;78;21108;-69
2021/03/17 03:46:25;;;;;;;18.30;8.13;;;;;;;4.28;60.01;99474.63;1787455;79;21609;-67
2021/03/17 03:48:54;;;;;;;13.10;7.92;;;;;;;4.23;60.16;99476.70;1791129;79;22359;-66
2021/03/17 03:51:22;;;;;;;12.93;6.87;;;;;;;4.18;60.37;99478.80;1795794;79;22241;-66
2021/03/17 03:54:27;;;;;;;18.55;7.87;;;;;;;4.16;60.53;99479.85;1767633;79;21660;-66
2021/03/17 03:57:09;;;;;;;13.70;7.28;;;;;;;4.13;60.60;99482.66;1783535;79;21184;-67
2021/03/17 03:59:45;;;;;;;9.88;6.33;;;;;;;4.08;60.59;99469.95;1727310;80;21218;-66
2021/03/17 04:02:22;;;;;;;22.52;7.00;;;;;;;4.13;60.63;99471.77;1750742;79;21187;-67
2021/03/17 04:04:50;;;;;;;12.85;6.83;;;;;;;4.25;60.43;99474.00;1737800;80;21175;-66
2021/03/17 04:07:18;;;;;;;14.50;7.00;;;;;;;4.30;60.34;99477.60;1791548;79;22237;-66
2021/03/17 04:09:49;;;;;;;11.65;6.37;;;;;;;4.31;60.35;99478.80;1797798;78;21156;-67
2021/03/17 04:12:18;;;;;;;13.15;7.12;;;;;;;4.33;60.30;99468.28;1786887;78;21219;-67
2021/03/17 04:14:49;;;;;;;16.60;7.55;;;;;;;4.34;60.20;99463.42;1784329;78;21213;-67
2021/03/17 04:17:28;;;;;;;17.67;8.60;;;;;;;4.34;60.23;99466.02;1784460;79;21172;-66
2021/03/17 04:20:09;;;;;;;12.45;7.17;;;;;;;4.34;60.18;99464.72;1729730;80;21183;-66
2021/03/17 04:22:38;;;;;;;23.35;8.03;;;;;;;4.31;60.25;99467.56;1767452;79;21146;-66
2021/03/17 04:25:10;;;;;;;11.60;7.00;;;;;;;4.27;60.24;99465.16;1761389;80;21199;-66
2021/03/17 04:27:37;;;;;;;14.50;7.85;;;;;;;4.25;60.30;99463.14;1751919;80;21211;-66
2021/03/17 04:30:07;;;;;;;13.10;7.83;;;;;;;4.24;60.37;99462.77;1739831;81;21647;-66
2021/03/17 04:32:34;;;;;;;13.88;7.17;;;;;;;4.23;60.40;99466.30;1744726;81;21180;-66
2021/03/17 04:35:03;;;;;;;16.95;7.12;;;;;;;4.21;60.32;99461.66;1743465;80;22445;-66
2021/03/17 04:37:31;;;;;;;19.00;7.22;;;;;;;4.16;60.45;99462.45;1743041;81;21283;-68
2021/03/17 04:42:18;;;;;;;14.73;6.83;;;;;;;4.21;60.71;99456.94;1750975;78;22952;-67
2021/03/17 04:44:46;;;;;;;12.68;7.50;;;;;;;4.25;60.58;99451.87;1721594;82;21621;-68
2021/03/17 04:47:15;;;;;;;15.98;7.58;;;;;;;4.33;60.47;99454.78;1730511;80;22966;-68
2021/03/17 04:49:44;;;;;;;13.32;7.20;;;;;;;4.35;60.43;99450.30;1728190;82;21196;-69
2021/03/17 04:52:15;;;;;;;16.95;8.25;;;;;;;4.34;60.39;99451.70;1731794;82;21238;-68
2021/03/17 04:54:42;;;;;;;15.23;7.55;;;;;;;4.33;60.35;99444.36;1732642;80;21204;-70
2021/03/17 04:57:15;;;;;;;20.57;8.13;;;;;;;4.30;60.42;99448.95;1701544;82;21728;-68
2021/03/17 04:59:42;;;;;;;13.60;8.03;;;;;;;4.29;60.48;99441.62;1718779;82;21217;-67
2021/03/17 05:02:10;;;;;;;15.72;7.37;;;;;;;4.25;60.48;99444.91;1734334;80;21915;-66
2021/03/17 05:04:40;;;;;;;14.90;7.17;;;;;;;4.26;60.52;99441.83;1702020;82;21172;-66
2021/03/17 05:07:08;;;;;;;12.88;7.53;;;;;;;4.26;60.51;99443.13;1733572;80;21180;-66
2021/03/17 05:09:38;;;;;;;11.75;6.87;;;;;;;4.25;60.45;99445.36;1712003;82;21580;-67
2021/03/17 05:12:07;;;;;;;15.65;9.03;;;;;;;4.27;60.51;99444.81;1636231;83;21476;-69
2021/03/17 05:14:35;;;;;;;14.38;7.35;;;;;;;4.23;60.71;99446.77;1679010;83;21224;-69
2021/03/17 05:17:04;;;;;;;13.83;7.62;;;;;;;4.21;60.71;99444.73;1715598;82;21662;-68
2021/03/17 05:19:32;;;;;;;18.62;8.15;;;;;;;4.20;60.80;99452.20;1712983;82;21646;-69
2021/03/17 05:22:00;;;;;;;14.18;7.37;;;;;;;4.25;60.75;99446.66;1714918;82;21776;-66
2021/03/17 05:24:28;;;;;;;13.48;7.87;;;;;;;4.40;60.50;99448.20;1700546;82;21371;-66
2021/03/17 05:26:56;;;;;;;15.60;7.30;;;;;;;4.53;60.18;99444.77;1713000;82;21148;-65
2021/03/17 05:29:24;;;;;;;13.78;7.37;;;;;;;4.57;60.00;99448.80;1704546;82;21154;-66
2021/03/17 05:31:52;;;;;;;15.08;8.23;;;;;;;4.55;59.86;99454.59;1715195;81;21775;-66
2021/03/17 05:34:20;;;;;;;19.10;8.63;;;;;;;4.53;59.85;99453.88;1688226;83;21619;-67
2021/03/17 05:36:48;;;;;;;17.52;8.38;;;;;;;4.53;59.84;99451.27;1709013;82;21264;-68
2021/03/17 05:39:16;;;;;;;19.27;7.60;;;;;;;4.49;59.89;99445.90;1687549;83;21212;-66
2021/03/17 05:41:45;;;;;;;14.43;7.70;;;;;;;4.48;59.93;99449.46;1705581;82;21185;-67
2021/03/17 05:44:12;;;;;;;11.30;6.72;;;;;;;4.46;59.81;99449.56;1634952;83;21527;-70
2021/03/17 05:46:43;;;;;;;11.50;7.03;;;;;;;4.44;59.80;99450.16;1696302;82;21199;-66
2021/03/17 05:49:12;;;;;;;12.78;6.72;;;;;;;4.39;60.01;99448.34;1697150;82;21207;-68
2021/03/17 05:51:40;;;;;;;12.68;7.03;;;;;;;4.35;60.09;99442.95;1697057;82;21212;-66
2021/03/17 05:54:09;;;;;;;13.48;7.00;;;;;;;4.33;60.12;99450.88;1678746;83;21220;-66
2021/03/17 05:56:37;;;;;;;17.73;7.03;;;;;;;4.31;60.19;99451.45;1697387;83;21165;-69
2021/03/17 05:59:04;;;;;;;24.32;7.65;;;;;;;4.29;60.35;99457.25;1687583;84;22343;-67
2021/03/17 06:01:32;;;;;;;15.98;8.45;;;;;;;4.30;60.39;99451.08;1680395;83;21552;-68
2021/03/17 06:04:02;;;;;;;11.48;5.12;;;;;;;4.36;60.32;99456.36;1648464;85;21478;-68
2021/03/17 06:06:30;;;;;;;14.13;7.53;;;;;;;4.53;60.02;99453.40;1638545;84;21316;-67
2021/03/17 06:08:59;;;;;;;13.72;7.37;;;;;;;4.53;60.02;99453.40;1662316;84;21560;-68
2021/03/17 06:11:27;;;;;;;18.40;8.23;;;;;;;4.59;59.99;99458.64;1631281;86;21160;-67
2021/03/17 06:13:56;;;;;;;15.80;7.50;;;;;;;4.60;59.77;99454.63;1663898;84;21212;-67
2021/03/17 06:16:23;;;;;;;13.45;7.28;;;;;;;4.61;59.83;99450.27;1663383;84;21821;-67
2021/03/17 06:18:56;;;;;;;12.47;6.62;;;;;;;4.60;59.68;99455.11;1664047;84;21137;-68
2021/03/17 06:21:23;;;;;;;14.10;7.65;;;;;;;4.57;59.78;99450.96;1634242;84;21152;-67
2021/03/17 06:23:52;;;;;;;11.93;6.78;;;;;;;4.56;59.63;99451.89;1632452;86;22004;-67
2021/03/17 06:26:19;;;;;;;15.45;7.85;;;;;;;4.54;59.74;99439.89;1664165;84;22459;-67
2021/03/17 06:28:49;;;;;;;14.90;8.38;;;;;;;4.52;59.58;99442.60;1664994;84;21156;-67
2021/03/17 06:31:20;;;;;;;18.42;7.87;;;;;;;4.52;59.74;99445.69;1704106;83;21109;-71
2021/03/17 06:33:54;;;;;;;15.98;7.80;;;;;;;4.50;59.91;99454.91;1701274;83;21168;-69
2021/03/17 06:36:23;;;;;;;13.98;8.00;;;;;;;4.51;60.13;99455.28;1701998;82;21195;-68
2021/03/17 06:39:09;;;;;;;12.90;8.80;;;;;;;4.54;59.99;99455.52;1697519;82;21212;-67
2021/03/17 06:41:50;;;;;;;12.40;6.78;;;;;;;4.57;60.11;99457.48;1704220;82;21544;-67
2021/03/17 06:44:27;;;;;;;15.03;7.58;;;;;;;4.62;59.90;99457.12;1710917;82;21168;-67
2021/03/17 06:47:20;;;;;;;14.35;6.90;;;;;;;4.73;59.74;99452.48;1711697;82;21176;-65
2021/03/17 06:49:53;;;;;;;15.23;6.90;;;;;;;4.88;59.54;99457.91;1708235;82;21172;-66
2021/03/17 06:52:30;;;;;;;14.87;7.60;;;;;;;4.95;59.36;99455.22;1709972;82;21246;-69
2021/03/17 06:55:14;;;;;;;12.93;7.03;;;;;;;4.97;59.32;99457.72;1683846;82;21677;-65
2021/03/17 06:57:50;;;;;;;12.85;7.72;;;;;;;5.00;59.33;99457.50;1712141;82;21156;-67
2021/03/17 07:00:32;;;;;;;11.48;7.05;;;;;;;5.00;59.33;99457.50;1667614;84;21149;-68
2021/03/17 07:03:13;;;;;;;14.10;7.12;;;;;;;5.03;59.42;99459.41;1688652;82;21180;-66
2021/03/17 07:05:44;;;;;;;12.85;7.05;;;;;;;5.05;59.21;99457.17;1713668;82;21386;-66
2021/03/17 07:08:28;;;;;;;12.28;7.17;;;;;;;5.03;59.35;99460.72;1708781;82;21268;-66
2021/03/17 07:11:00;;;;;;;14.38;6.58;;;;;;;5.03;59.15;99463.33;1689041;83;21149;-69
2021/03/17 07:13:30;;;;;;;14.68;7.37;;;;;;;5.01;59.10;99458.70;1714620;82;21113;-65
2021/03/17 07:15:59;;;;;;;19.05;7.95;;;;;;;4.99;59.14;99459.28;1712845;82;21133;-65
2021/03/17 07:18:30;;;;;;;18.80;6.40;;;;;;;5.00;59.31;99457.02;1711547;82;21217;-68
2021/03/17 07:21:03;;;;;;;14.68;7.08;;;;;;;4.97;59.15;99450.72;1711444;82;21398;-66
2021/03/17 07:23:44;;;;;;;11.50;6.72;;;;;;;4.93;59.36;99457.59;1715126;82;21199;-67
2021/03/17 07:26:20;;;;;;;12.40;7.62;;;;;;;4.90;59.47;99451.28;1712411;82;21199;-69
2021/03/17 07:29:10;;;;;;;13.40;7.33;;;;;;;4.83;59.74;99447.80;1713976;82;22266;-64
2021/03/17 07:31:40;;;;;;;14.07;7.25;;;;;;;4.84;59.78;99448.17;1714869;82;21208;-67
2021/03/17 07:34:21;;;;;;;14.78;7.20;;;;;;;4.90;59.61;99452.11;1710078;82;21199;-67
2021/03/17 07:36:58;;;;;;;10.43;5.45;;;;;;;4.97;59.62;99458.54;1713452;82;21158;-66
2021/03/17 07:39:31;;;;;;;12.18;7.37;;;;;;;5.15;59.29;99452.48;1714902;82;21109;-66
2021/03/17 07:42:00;;;;;;;14.68;7.15;;;;;;;5.24;59.23;99447.06;1711672;82;21124;-66
2021/03/17 07:44:28;;;;;;;18.55;8.60;;;;;;;5.32;59.30;99455.64;1712487;82;21438;-66
2021/03/17 07:47:01;;;;;;;13.98;7.22;;;;;;;5.39;59.00;99451.63;1710191;82;21192;-65
2021/03/17 07:49:30;;;;;;;21.93;7.20;;;;;;;5.42;58.78;99447.50;1706473;83;21225;-66
2021/03/17 07:52:00;;;;;;;16.45;7.37;;;;;;;5.40;58.79;99446.31;1682333;83;21199;-67
2021/03/17 07:54:38;;;;;;;16.40;7.85;;;;;;;5.42;58.97;99455.81;1703606;82;21157;-66
2021/03/17 07:57:07;;;;;;;10.65;6.55;;;;;;;5.43;58.94;99454.39;1685617;83;21977;-66
2021/03/17 07:59:34;;;;;;;12.45;6.95;;;;;;;5.43;59.42;99454.84;1711641;82;21734;-67
2021/03/17 08:02:02;;;;;;;15.95;7.08;;;;;;;5.43;59.42;99454.84;1709999;82;21187;-66
2021/03/17 08:04:33;;;;;;;15.32;6.65;;;;;;;5.43;58.88;99454.84;1683000;83;21172;-67
2021/03/17 08:07:04;;;;;;;19.17;7.33;;;;;;;5.41;59.00;99447.13;1708538;82;21223;-66
2021/03/17 08:09:33;;;;;;;10.70;5.80;;;;;;;5.40;59.12;99442.39;1683998;83;21203;-67
2021/03/17 08:12:04;;;;;;;17.98;6.67;;;;;;;5.39;59.15;99449.84;1713557;82;21187;-66
2021/03/17 08:14:32;;;;;;;12.15;6.47;;;;;;;5.38;59.26;99453.91;1714827;82;21249;-67
2021/03/17 08:16:59;;;;;;;15.32;6.60;;;;;;;5.35;59.67;99452.34;1670195;82;21172;-66
2021/03/17 08:19:30;;;;;;;14.73;6.85;;;;;;;5.35;59.67;99452.34;1706033;82;21168;-67
2021/03/17 08:22:02;;;;;;;13.22;7.00;;;;;;;5.38;59.23;99442.98;1709370;82;21219;-66
2021/03/17 08:24:36;;;;;;;15.08;7.30;;;;;;;5.55;59.17;99442.22;1690818;82;21216;-67
2021/03/17 08:27:14;;;;;;;14.87;6.83;;;;;;;5.67;58.96;99443.08;1708061;82;21162;-66
2021/03/17 08:30:09;;;;;;;10.53;6.37;;;;;;;5.72;58.87;99439.66;1679285;83;21211;-67
2021/03/17 08:32:56;;;;;;;10.55;6.92;;;;;;;5.73;58.81;99435.63;1705782;82;21205;-68
2021/03/17 08:35:24;;;;;;;15.00;7.85;;;;;;;5.75;58.73;99444.17;1710196;82;21220;-67
2021/03/17 08:37:55;;;;;;;13.93;7.12;;;;;;;5.73;58.64;99442.61;1711080;82;22354;-68
2021/03/17 08:40:37;;;;;;;11.33;7.08;;;;;;;5.74;58.75;99447.72;1714233;82;21219;-68
2021/03/17 08:43:33;;;;;;;11.93;6.30;;;;;;;5.75;58.76;99440.73;1700334;82;21486;-67
2021/03/17 08:46:18;;;;;;;16.10;6.67;;;;;;;5.73;58.82;99442.61;1696099;82;21243;-65
2021/03/17 08:49:01;;;;;;;17.17;7.75;;;;;;;5.71;59.05;99443.20;1677604;82;21206;-65
2021/03/17 08:51:50;;;;;;;21.77;7.87;;;;;;;5.69;58.97;99439.88;1699882;82;21477;-65
2021/03/17 08:54:45;;;;;;;18.42;7.20;;;;;;;5.66;59.06;99442.23;1689652;82;21175;-66
2021/03/17 08:57:14;;;;;;;11.80;6.40;;;;;;;5.65;59.21;99437.98;1696955;84;21160;-66
2021/03/17 08:59:56;;;;;;;13.62;7.15;;;;;;;5.66;59.24;99441.41;1695324;83;22502;-68
2021/03/17 09:02:32;;;;;;;11.35;6.97;;;;;;;5.77;59.45;99437.53;1694005;83;22175;-67
2021/03/17 09:05:06;;;;;;;10.23;6.20;;;;;;;5.79;58.82;99441.33;1643105;85;21262;-67
2021/03/17 09:07:35;;;;;;;11.55;6.30;;;;;;;5.79;58.82;99441.33;1658431;84;22447;-66
2021/03/17 09:10:10;;;;;;;18.52;7.70;;;;;;;5.82;59.13;99438.02;1654881;84;21212;-66
2021/03/17 09:12:45;;;;;;;19.12;6.53;;;;;;;6.00;58.56;99433.67;1649661;84;21210;-66
2021/03/17 09:15:17;;;;;;;11.10;6.35;;;;;;;6.00;58.56;99433.67;1659848;84;23050;-66
2021/03/17 09:17:59;;;;;;;13.72;6.67;;;;;;;6.04;58.33;99432.50;1695963;83;21193;-66
2021/03/17 09:20:35;;;;;;;11.90;6.25;;;;;;;6.07;58.23;99437.47;1679287;83;21200;-67
2021/03/17 09:23:06;;;;;;;9.73;5.83;;;;;;;6.07;58.09;99440.08;1676827;83;21561;-67
2021/03/17 09:25:49;;;;;;;10.85;6.10;;;;;;;6.07;58.25;99440.08;1667101;84;21160;-66
2021/03/17 09:28:27;;;;;;;17.48;6.90;;;;;;;6.14;58.07;99438.69;1664350;84;21220;-66
2021/03/17 09:31:02;;;;;;;12.43;5.97;;;;;;;6.22;57.81;99443.30;1660057;84;21240;-66
2021/03/17 09:33:33;;;;;;;12.28;6.05;;;;;;;6.24;57.87;99446.66;1662863;84;21631;-67
2021/03/17 09:36:09;;;;;;;11.90;6.03;;;;;;;6.27;57.59;99447.70;1661934;84;21239;-68
2021/03/17 09:38:43;;;;;;;9.93;5.80;;;;;;;6.27;57.24;99448.55;1629270;86;21153;-68
2021/03/17 09:41:23;;;;;;;16.37;6.55;;;;;;;6.27;57.15;99449.00;1662151;86;22794;-67
2021/03/17 09:43:55;;;;;;;12.60;5.75;;;;;;;6.23;56.83;99456.73;1638778;85;21219;-68
2021/03/17 09:46:36;;;;;;;10.85;6.35;;;;;;;6.13;56.99;99452.20;1648199;83;21258;-68
2021/03/17 09:49:10;;;;;;;11.85;6.28;;;;;;;6.05;57.06;99453.28;1674288;85;21599;-71
2021/03/17 09:51:47;;;;;;;12.00;5.67;;;;;;;6.05;57.06;99453.28;1662569;85;21131;-67
2021/03/17 09:54:18;;;;;;;11.85;5.37;;;;;;;6.10;57.16;99448.99;1647750;85;22216;-67
2021/03/17 09:56:57;;;;;;;15.75;5.15;;;;;;;6.10;57.16;99448.99;1625977;86;21159;-65
2021/03/17 09:59:32;;;;;;;10.38;5.87;;;;;;;6.12;57.28;99447.12;1667780;85;21231;-67
2021/03/17 10:02:22;;;;;;;;;;;;;;;6.15;57.25;99441.64;1616487;86;21159;-66
2021/03/17 10:04:55;;;;;;;9.40;5.35;;;;;;;6.18;57.26;99447.11;1648947;85;20654;-66
2021/03/17 10:07:28;;;;;;;11.30;5.53;;;;;;;6.19;58.00;99446.17;1673206;83;21718;-67
2021/03/17 10:09:57;;;;;;;12.80;5.67;;;;;;;6.19;58.00;99446.17;1670206;83;21159;-66
2021/03/17 10:12:30;;;;;;;10.63;5.37;;;;;;;6.12;57.54;99440.59;1649521;85;21235;-67
2021/03/17 10:15:11;;;;;;;16.07;5.90;;;;;;;6.12;57.54;99440.59;1676639;83;21183;-67
2021/03/17 10:17:39;;;;;;;11.68;5.53;;;;;;;6.05;57.89;99435.45;1654886;85;21514;-67
2021/03/17 10:20:14;;;;;;;11.28;4.72;;;;;;;6.00;58.30;99448.03;1667467;84;21212;-66
2021/03/17 10:22:43;;;;;;;10.95;5.00;;;;;;;5.98;58.34;99439.49;1641119;85;21194;-67
2021/03/17 10:25:15;;;;;;;15.53;5.90;;;;;;;5.95;58.22;99439.20;1632026;86;21240;-67
2021/03/17 10:38:17;;;;;;;9.35;4.85;;;;;;;5.75;58.88;99438.95;1749892;79;22868;-68
2021/03/17 10:40:46;;;;;;;10.85;5.55;;;;;;;5.70;58.85;99442.38;1744768;80;21630;-67
2021/03/17 10:43:14;;;;;;;11.12;5.47;;;;;;;5.75;58.86;99442.86;1743262;80;21203;-68
2021/03/17 10:45:47;;;;;;;8.30;4.33;;;;;;;5.79;58.54;99439.55;1754583;80;21291;-67
2021/03/17 10:48:22;;;;;;;10.53;4.08;;;;;;;5.86;58.47;99443.34;1750310;80;21202;-67
2021/03/17 10:50:51;;;;;;;9.98;4.65;;;;;;;5.93;58.21;99446.33;1766125;80;21618;-67
2021/03/17 10:53:28;;;;;;;12.70;4.20;;;;;;;5.99;57.95;99444.59;1737462;80;21625;-68
2021/03/17 10:55:58;;;;;;;7.97;4.30;;;;;;;6.00;57.69;99443.66;1750371;80;21241;-66
2021/03/17 10:58:29;;;;;;;10.53;5.00;;;;;;;6.00;57.69;99443.66;1729331;80;22292;-67
2021/03/17 11:01:00;;;;;;;7.95;4.08;;;;;;;6.04;58.11;99441.16;1758320;80;21812;-67
2021/03/17 11:03:39;;;;;;;9.33;4.10;;;;;;;6.10;58.22;99438.09;1823907;76;24219;-66
2021/03/17 11:06:18;;;;;;;8.75;4.12;;;;;;;6.17;58.02;99436.30;1741891;79;21151;-68
2021/03/17 11:09:06;;;;;;;8.75;4.85;;;;;;;6.17;58.02;99436.30;1774778;79;21208;-66
2021/03/17 11:11:53;;;;;;;12.00;5.35;;;;;;;6.17;58.02;99444.13;1752841;80;21072;-66
2021/03/17 11:14:34;;;;;;;12.37;4.40;;;;;;;6.20;57.45;99445.20;1778365;79;21115;-66
2021/03/17 11:17:08;;;;;;;10.35;4.75;;;;;;;6.23;57.35;99441.88;1777419;80;21675;-65
2021/03/17 11:19:37;;;;;;;;;;;;;;;6.27;57.52;99443.78;1774102;80;21211;-66
2021/03/17 11:22:05;;;;;;;10.75;4.28;;;;;;;6.29;57.59;99443.20;1777223;79;21208;-68
2021/03/17 11:24:33;;;;;;;15.32;4.53;;;;;;;6.21;57.57;99442.97;1777840;80;21450;-66
2021/03/17 11:27:02;;;;;;;12.30;4.58;;;;;;;6.18;57.66;99441.89;1774632;79;21192;-67
2021/03/17 11:29:30;;;;;;;11.65;4.50;;;;;;;6.19;57.91;99444.39;1776925;79;21819;-67
2021/03/17 11:32:07;;;;;;;8.95;4.42;;;;;;;6.26;57.34;99444.75;1751614;80;21191;-66
2021/03/17 11:34:35;;;;;;;10.15;3.83;;;;;;;6.26;57.34;99444.75;1779610;80;21178;-68
2021/03/17 11:37:02;;;;;;;9.90;4.35;;;;;;;6.24;57.41;99444.04;1717850;81;21630;-67
2021/03/17 11:39:30;;;;;;;10.00;4.30;;;;;;;6.25;57.43;99440.45;1713592;81;21191;-66
2021/03/17 11:41:57;;;;;;;6.92;3.47;;;;;;;6.24;57.54;99445.34;1775217;80;21084;-67
2021/03/17 11:44:25;;;;;;;12.90;3.65;;;;;;;6.23;57.53;99439.27;1778617;80;21199;-67
2021/03/17 11:46:52;;;;;;;8.23;4.35;;;;;;;6.21;57.62;99443.78;1777922;79;21706;-67
2021/03/17 11:49:20;;;;;;;10.85;4.35;;;;;;;6.22;57.75;99441.55;1709985;80;21658;-67
2021/03/17 11:51:48;;;;;;;10.88;4.00;;;;;;;6.27;57.77;99446.39;1747535;80;21124;-67
2021/03/17 11:54:16;;;;;;;10.95;4.78;;;;;;;6.31;57.80;99445.22;1765920;80;21112;-67
2021/03/17 11:56:44;;;;;;;11.33;4.37;;;;;;;6.33;57.74;99436.30;1745723;80;21120;-66
2021/03/17 11:59:11;;;;;;;9.60;4.53;;;;;;;6.34;57.73;99448.91;1746853;80;22087;-67
2021/03/17 12:01:40;;;;;;;10.68;4.05;;;;;;;6.34;57.73;99448.91;1776233;79;21219;-67
2021/03/17 12:04:09;;;;;;;8.18;4.28;;;;;;;6.32;57.81;99449.48;1770798;79;21159;-67
2021/03/17 12:06:37;;;;;;;10.80;4.12;;;;;;;6.31;58.21;99453.88;1781809;80;21104;-66
2021/03/17 12:09:05;;;;;;;14.93;4.78;;;;;;;6.31;58.21;99453.88;1779081;80;21092;-69
2021/03/17 12:11:35;;;;;;;10.60;4.37;;;;;;;6.30;57.77;99453.55;1779935;79;21625;-66
2021/03/17 12:14:03;;;;;;;10.32;3.85;;;;;;;6.26;57.80;99449.97;1773258;80;21151;-66
2021/03/17 12:16:32;;;;;;;12.00;5.25;;;;;;;6.22;57.99;99453.30;1779293;79;21159;-67